Time;durP1;ratioP1;P1;durP2;ratioP2;P2;SDS_P1;SDS_P2;PMS_P1;PMS_P2;Temp;Humidity;BMP_temperature;BMP_pressure;BME280_temperature;BME280_humidity;BME280_pressure;Samples;Min_cycle;Max_cycle;Signal;HPM_P1;HPM_P2
2022/07/24 00:02:23;;;;;;;19.60;17.60;;;;;;;19.86;82.35;98860.35;220094;1276;24231;-74
2022/07/24 00:07:28;;;;;;;20.10;18.10;;;;;;;19.81;82.24;98865.19;219876;1276;22702;-75
2022/07/24 00:12:31;;;;;;;21.30;19.00;;;;;;;19.76;82.42;98867.89;219860;1276;22581;-77
2022/07/24 00:17:33;;;;;;;22.80;19.90;;;;;;;19.72;82.62;98870.56;219974;1276;22665;-73
2022/07/24 00:22:36;;;;;;;21.00;18.90;;;;;;;19.69;82.76;98878.34;219868;1276;22681;-74
2022/07/24 00:27:38;;;;;;;21.10;19.10;;;;;;;19.66;82.87;98868.33;219903;1276;22867;-74
2022/07/24 00:32:41;;;;;;;23.50;20.20;;;;;;;19.63;83.08;98871.66;219983;1276;22583;-78
2022/07/24 00:37:56;;;;;;;22.00;19.80;;;;;;;19.60;83.08;98868.00;220036;1276;22871;-74
2022/07/24 00:43:12;;;;;;;20.10;18.10;;;;;;;19.56;83.00;98874.49;219889;1276;22557;-76
2022/07/24 00:48:20;;;;;;;21.80;19.40;;;;;;;19.54;83.28;98881.11;220009;1276;22565;-74
2022/07/24 00:53:24;;;;;;;22.70;20.40;;;;;;;19.52;83.41;98883.53;220002;1276;24383;-75
2022/07/24 00:58:26;;;;;;;22.50;20.20;;;;;;;19.49;83.57;98886.34;219799;1276;312695;-75
2022/07/24 01:03:29;;;;;;;21.60;19.50;;;;;;;19.49;83.61;98886.89;220021;1276;24521;-75
2022/07/24 01:08:32;;;;;;;23.60;21.30;;;;;;;19.47;83.59;98887.68;220176;1276;22602;-75
2022/07/24 01:13:35;;;;;;;22.70;20.40;;;;;;;19.46;83.83;98891.06;220058;1276;22622;-75
2022/07/24 01:19:08;;;;;;;21.80;19.70;;;;;;;19.45;83.78;98886.73;219196;1276;24009;-75
2022/07/24 01:24:34;;;;;;;20.10;18.20;;;;;;;19.37;83.64;98877.83;220150;1276;22561;-76
2022/07/24 01:29:36;;;;;;;20.10;18.10;;;;;;;19.28;83.47;98880.86;220199;1276;24309;-75
2022/07/24 01:34:39;;;;;;;18.20;16.50;;;;;;;19.17;83.32;98882.70;220223;1276;24365;-75
2022/07/24 01:39:41;;;;;;;17.70;16.00;;;;;;;19.07;83.17;98884.58;220234;1276;22545;-75
2022/07/24 01:44:43;;;;;;;15.90;14.20;;;;;;;18.96;82.79;98886.80;220190;1276;24250;-74
2022/07/24 01:49:46;;;;;;;15.50;14.10;;;;;;;18.84;82.71;98879.77;220205;1276;22811;-75
2022/07/24 01:54:49;;;;;;;16.80;13.90;;;;;;;18.74;82.65;98881.59;220162;1276;22538;-76
2022/07/24 01:59:51;;;;;;;15.30;13.70;;;;;;;18.63;82.58;98883.61;219991;1276;22541;-76
2022/07/24 02:04:53;;;;;;;13.40;12.00;;;;;;;18.53;82.58;98883.58;220203;1276;22549;-75
2022/07/24 02:09:59;;;;;;;14.40;12.90;;;;;;;18.43;82.60;98883.48;220068;1276;24256;-76
2022/07/24 02:15:02;;;;;;;16.40;14.10;;;;;;;18.32;82.64;98879.98;220025;1276;24018;-75
2022/07/24 02:20:08;;;;;;;14.60;13.20;;;;;;;18.23;82.70;98880.61;220065;1276;22620;-75
2022/07/24 02:25:19;;;;;;;15.40;13.80;;;;;;;18.12;82.76;98882.66;219782;1276;22633;-78
2022/07/24 02:30:24;;;;;;;15.40;13.80;;;;;;;18.02;82.86;98887.04;220125;1276;22570;-75
2022/07/24 02:35:27;;;;;;;16.20;13.80;;;;;;;17.95;82.95;98891.22;220023;1276;22578;-75
2022/07/24 02:40:29;;;;;;;14.90;13.20;;;;;;;17.91;83.12;98898.41;220068;1276;24066;-78
2022/07/24 02:45:32;;;;;;;18.30;14.30;;;;;;;17.85;83.08;98897.96;219939;1276;23851;-75
2022/07/24 02:50:38;;;;;;;16.80;14.10;;;;;;;17.78;83.18;98891.68;219954;1276;25325;-75
2022/07/24 02:55:53;;;;;;;17.70;14.30;;;;;;;17.71;83.14;98893.89;220059;1276;23803;-75
2022/07/24 03:01:15;;;;;;;15.00;13.50;;;;;;;17.62;83.07;98896.06;220075;1276;25561;-75
2022/07/24 03:07:06;;;;;;;15.20;13.60;;;;;;;17.53;83.11;98898.59;220121;1276;25328;-74
2022/07/24 03:12:11;;;;;;;15.10;13.60;;;;;;;17.44;83.10;98900.92;220069;1276;25493;-76
2022/07/24 03:17:13;;;;;;;14.80;13.20;;;;;;;17.35;83.03;98902.21;220084;1276;24273;-75
2022/07/24 03:22:19;;;;;;;15.30;13.30;;;;;;;17.28;83.17;98912.55;220083;1276;22668;-76
2022/07/24 03:27:21;;;;;;;16.00;13.30;;;;;;;17.22;83.16;98913.95;220053;1276;22567;-78
2022/07/24 03:32:27;;;;;;;14.90;13.20;;;;;;;17.18;83.16;98925.03;219374;1276;22542;-75
2022/07/24 03:37:36;;;;;;;14.10;12.70;;;;;;;17.21;83.52;98923.19;219811;1276;24275;-76
2022/07/24 03:42:42;;;;;;;16.10;12.60;;;;;;;17.39;83.71;98927.50;219967;1276;22563;-74
2022/07/24 03:47:52;;;;;;;15.20;13.40;;;;;;;17.62;83.55;98928.58;220054;1277;22587;-76
2022/07/24 03:53:04;;;;;;;14.30;12.80;;;;;;;17.88;83.14;98933.94;219974;1276;22795;-75
2022/07/24 03:58:08;;;;;;;15.40;11.60;;;;;;;18.11;82.35;98940.15;219894;1276;22558;-75
2022/07/24 04:03:11;;;;;;;13.30;12.00;;;;;;;18.26;81.88;98946.08;219901;1276;24337;-74
2022/07/24 04:08:15;;;;;;;12.70;11.50;;;;;;;18.37;81.92;98947.85;220069;1276;22574;-74
2022/07/24 04:13:20;;;;;;;12.80;11.50;;;;;;;18.38;81.59;98951.66;219823;1276;25378;-74
2022/07/24 04:18:23;;;;;;;14.00;11.70;;;;;;;18.31;81.63;98951.77;219970;1276;22590;-75
2022/07/24 04:23:28;;;;;;;11.90;10.80;;;;;;;18.28;81.68;98949.02;220106;1277;22580;-75
2022/07/24 04:28:31;;;;;;;12.10;11.00;;;;;;;18.22;81.54;98948.13;219991;1276;24379;-78
2022/07/24 04:33:34;;;;;;;12.40;11.10;;;;;;;18.17;81.43;98961.10;219739;1276;24264;-73
2022/07/24 04:38:36;;;;;;;12.60;11.10;;;;;;;18.12;81.64;98968.40;219608;1276;23853;-75
2022/07/24 04:43:39;;;;;;;13.20;11.90;;;;;;;18.12;81.79;98975.13;219842;1276;22559;-75
2022/07/24 04:48:41;;;;;;;12.20;11.10;;;;;;;18.13;81.91;98980.66;219096;1276;25411;-75
2022/07/24 04:59:45;;;;;;;12.50;11.20;;;;;;;18.16;81.89;98988.05;219957;1276;24243;-75
2022/07/24 05:04:58;;;;;;;12.50;11.20;;;;;;;18.16;81.92;98995.17;220030;1276;25402;-74
2022/07/24 05:10:01;;;;;;;10.70;9.70;;;;;;;18.17;81.88;98999.08;220062;1276;24249;-76
2022/07/24 05:15:05;;;;;;;11.10;10.00;;;;;;;18.19;81.74;99001.72;219777;1276;22562;-74
2022/07/24 05:20:17;;;;;;;11.60;10.50;;;;;;;18.24;81.84;99003.90;219785;1276;24400;-75
2022/07/24 05:25:20;;;;;;;11.10;10.00;;;;;;;18.31;81.75;99004.38;219113;1276;22768;-77
2022/07/24 05:30:44;;;;;;;10.40;9.40;;;;;;;18.44;81.79;99012.39;219966;1276;24417;-75
2022/07/24 05:35:47;;;;;;;10.40;9.30;;;;;;;18.58;81.74;99018.15;219068;1276;23068;-74
2022/07/24 05:41:12;;;;;;;9.90;9.00;;;;;;;18.73;81.25;99016.07;219350;1276;22561;-74
2022/07/24 05:46:14;;;;;;;9.20;8.40;;;;;;;18.83;80.86;99011.64;219517;1276;22538;-75
2022/07/24 05:51:20;;;;;;;9.20;8.30;;;;;;;18.95;80.51;99008.40;219960;1276;22547;-76
2022/07/24 05:56:49;;;;;;;8.60;7.70;;;;;;;19.06;80.18;99011.67;219971;1276;24490;-75
2022/07/24 06:02:08;;;;;;;8.50;7.70;;;;;;;19.13;79.47;99010.66;220174;1276;25373;-74
2022/07/24 06:07:17;;;;;;;7.60;7.00;;;;;;;19.19;79.18;99014.87;219960;1276;25372;-75
2022/07/24 06:12:43;;;;;;;8.10;7.20;;;;;;;19.28;78.72;99014.55;219187;1276;22563;-75
2022/07/24 06:24:08;;;;;;;7.30;6.60;;;;;;;19.54;78.13;99018.91;219843;1276;24356;-73
2022/07/24 06:29:10;;;;;;;7.90;7.00;;;;;;;19.64;77.72;99023.46;220071;1276;22540;-74
2022/07/24 06:34:23;;;;;;;6.90;6.30;;;;;;;19.74;77.26;99028.66;219274;1276;22527;-74
2022/07/24 06:39:28;;;;;;;7.50;6.40;;;;;;;19.84;76.75;99029.89;219894;1276;22551;-74
2022/07/24 06:44:53;;;;;;;7.10;6.50;;;;;;;19.92;76.24;99027.09;220079;1276;24266;-73
2022/07/24 06:49:56;;;;;;;6.60;6.00;;;;;;;20.06;76.42;99024.94;219954;1276;25257;-74
2022/07/24 06:55:01;;;;;;;6.70;6.10;;;;;;;20.21;75.52;99024.10;220113;1276;22785;-72
2022/07/24 07:00:13;;;;;;;7.00;6.10;;;;;;;20.33;74.91;99028.30;220077;1276;22541;-73
2022/07/24 07:05:38;;;;;;;5.90;5.30;;;;;;;20.46;73.97;99031.84;219904;1279;24432;-74
2022/07/24 07:10:44;;;;;;;5.90;5.30;;;;;;;20.54;73.47;99031.11;220087;1276;25377;-73
2022/07/24 07:15:46;;;;;;;6.60;5.40;;;;;;;20.66;73.01;99032.85;219318;1276;24402;-73
2022/07/24 07:21:00;;;;;;;5.40;4.90;;;;;;;20.82;72.46;99032.23;219270;1276;22562;-74
2022/07/24 07:26:03;;;;;;;8.20;7.40;;;;;;;20.98;71.91;99034.36;219995;1276;24305;-73
2022/07/24 07:31:05;;;;;;;5.80;5.20;;;;;;;21.18;71.13;99038.25;220115;1276;24239;-74
2022/07/24 07:36:08;;;;;;;5.00;4.50;;;;;;;21.26;70.14;99038.81;219902;1276;25612;-73
2022/07/24 07:41:12;;;;;;;6.20;5.60;;;;;;;21.40;69.68;99043.89;220035;1278;22638;-75
2022/07/24 07:46:18;;;;;;;7.20;5.70;;;;;;;21.58;69.30;99040.66;220143;1277;25926;-73
2022/07/24 07:51:22;;;;;;;6.30;5.70;;;;;;;21.85;68.41;99045.61;220173;1276;23055;-72
2022/07/24 07:56:32;;;;;;;7.20;6.60;;;;;;;22.04;67.17;99046.31;219361;1276;22572;-73
2022/07/24 08:01:35;;;;;;;6.80;6.00;;;;;;;22.11;66.67;99045.36;219330;1277;22561;-72
2022/07/24 08:06:37;;;;;;;6.30;5.70;;;;;;;22.17;65.68;99049.84;219594;1277;22612;-75
2022/07/24 08:12:15;;;;;;;7.20;6.20;;;;;;;22.22;64.88;99049.23;220316;1276;22544;-73
2022/07/24 08:17:27;;;;;;;7.50;6.70;;;;;;;22.28;64.52;99047.09;219358;1276;22549;-72
2022/07/24 08:22:31;;;;;;;6.60;5.70;;;;;;;22.37;64.12;99051.29;219441;1276;22725;-72
2022/07/24 08:27:37;;;;;;;6.60;6.10;;;;;;;22.47;63.78;99051.21;219343;1276;22558;-71
2022/07/24 08:32:43;;;;;;;6.80;6.20;;;;;;;22.59;63.15;99049.41;219432;1276;23973;-74
2022/07/24 08:37:50;;;;;;;7.40;6.70;;;;;;;22.66;62.44;99046.98;219289;1277;22643;-72
2022/07/24 08:43:00;;;;;;;7.00;6.40;;;;;;;22.82;62.09;99059.80;219399;1276;24232;-72
2022/07/24 08:48:23;;;;;;;7.20;6.60;;;;;;;22.79;61.03;99065.45;219268;1276;23267;-72
2022/07/24 08:53:26;;;;;;;8.90;6.80;;;;;;;22.73;60.58;99068.08;219265;1276;24366;-73
2022/07/24 08:58:41;;;;;;;7.60;6.90;;;;;;;22.77;60.82;99059.25;219105;1276;24231;-74
2022/07/24 09:03:45;;;;;;;8.00;7.20;;;;;;;22.88;60.30;99060.22;219324;1276;24236;-73
2022/07/24 09:09:03;;;;;;;6.10;5.50;;;;;;;22.95;59.91;99059.25;219345;1276;22535;-72
2022/07/24 09:19:57;;;;;;;5.70;5.10;;;;;;;22.97;56.72;99055.85;219304;1276;22539;-71
2022/07/24 09:25:17;;;;;;;6.00;5.50;;;;;;;23.11;57.26;99050.46;220003;1276;24119;-74
2022/07/24 09:30:27;;;;;;;6.80;6.00;;;;;;;23.30;56.98;99050.94;219373;1276;25659;-74
2022/07/24 09:35:39;;;;;;;6.40;5.80;;;;;;;23.25;55.95;99058.90;219478;1276;22549;-73
2022/07/24 09:40:56;;;;;;;8.50;7.60;;;;;;;23.27;55.53;99063.70;219250;1276;25599;-71
2022/07/24 09:46:10;;;;;;;6.40;5.60;;;;;;;23.40;55.33;99064.52;219367;1276;22819;-75
2022/07/24 09:51:15;;;;;;;4.70;4.10;;;;;;;23.69;54.50;99061.17;219340;1276;25386;-73
2022/07/24 09:56:32;;;;;;;4.60;4.20;;;;;;;23.82;52.39;99064.96;219138;1276;23969;-72
2022/07/24 10:01:53;;;;;;;4.60;4.00;;;;;;;23.87;51.33;99062.76;219235;1276;25454;-73
2022/07/24 10:07:28;;;;;;;5.60;5.10;;;;;;;24.03;51.18;99056.27;219346;1276;22578;-76
2022/07/24 10:12:39;;;;;;;5.00;4.20;;;;;;;24.02;50.02;99053.04;219235;1276;25315;-74
2022/07/24 10:17:44;;;;;;;5.30;4.80;;;;;;;23.94;49.93;99053.33;219484;1276;22930;-73
2022/07/24 10:23:28;;;;;;;5.20;4.70;;;;;;;23.88;49.75;99051.13;219367;1280;24269;-73
2022/07/24 10:28:42;;;;;;;5.60;5.10;;;;;;;23.81;50.04;99051.73;219758;1277;25255;-72
2022/07/24 10:33:52;;;;;;;4.10;3.80;;;;;;;23.87;49.33;99050.65;219413;1276;25474;-72
2022/07/24 10:39:32;;;;;;;3.60;3.30;;;;;;;23.93;48.50;99042.62;219331;1276;22632;-72
2022/07/24 10:44:39;;;;;;;3.40;3.10;;;;;;;24.02;48.25;99049.06;219469;1277;22569;-73
2022/07/24 10:50:10;;;;;;;3.10;2.90;;;;;;;24.17;48.02;99047.20;219233;1279;25450;-74
2022/07/24 10:55:20;;;;;;;3.40;3.10;;;;;;;24.23;47.23;99044.63;219275;1277;24269;-75
2022/07/24 11:00:29;;;;;;;4.60;4.20;;;;;;;24.20;46.65;99039.65;219529;1277;23831;-73
2022/07/24 11:05:38;;;;;;;3.30;3.10;;;;;;;24.29;46.66;99037.01;219415;1276;23808;-72
2022/07/24 11:10:48;;;;;;;3.20;3.00;;;;;;;24.40;46.18;99039.71;219686;1276;23345;-74
2022/07/24 11:16:15;;;;;;;2.90;2.70;;;;;;;24.39;45.66;99033.44;219517;1277;23846;-73
2022/07/24 11:21:30;;;;;;;5.50;5.00;;;;;;;24.48;45.82;99035.48;219359;1277;22571;-77
2022/07/24 11:26:32;;;;;;;3.50;2.80;;;;;;;24.65;45.70;99033.48;219058;1276;22542;-74
2022/07/24 11:31:37;;;;;;;3.50;3.20;;;;;;;24.68;44.92;99030.55;219425;1276;25835;-73
2022/07/24 11:36:47;;;;;;;3.20;2.90;;;;;;;24.71;44.41;99029.02;219365;1277;22658;-72
2022/07/24 11:42:01;;;;;;;4.50;4.10;;;;;;;24.79;44.43;99032.14;219610;1276;25406;-75
2022/07/24 11:47:10;;;;;;;2.70;2.50;;;;;;;24.80;44.24;99023.62;219301;1279;24257;-73
2022/07/24 11:52:27;;;;;;;4.40;2.70;;;;;;;24.82;43.98;99031.13;219251;1277;22555;-73
2022/07/24 11:57:38;;;;;;;3.40;3.10;;;;;;;24.84;43.82;99026.00;220137;1276;22570;-74
2022/07/24 12:03:03;;;;;;;2.40;2.20;;;;;;;24.88;42.76;99020.47;220174;1277;22673;-72
2022/07/24 12:08:28;;;;;;;5.00;4.10;;;;;;;24.84;42.19;99021.14;219495;1276;24915;-73
2022/07/24 12:13:40;;;;;;;2.60;2.30;;;;;;;24.87;42.42;99018.35;220254;1278;22561;-75
2022/07/24 12:18:42;;;;;;;2.20;2.10;;;;;;;24.93;42.12;99015.98;220080;1277;22572;-73
2022/07/24 12:23:46;;;;;;;2.40;2.20;;;;;;;25.02;42.09;99013.39;220114;1278;22556;-71
2022/07/24 12:29:12;;;;;;;2.80;2.60;;;;;;;25.07;41.68;99012.64;219453;1277;22703;-72
2022/07/24 12:34:22;;;;;;;2.60;2.40;;;;;;;25.15;41.67;99011.27;219121;1277;25368;-73
2022/07/24 12:39:33;;;;;;;2.10;1.90;;;;;;;25.23;41.69;99004.05;219235;1277;22565;-72
2022/07/24 12:44:44;;;;;;;1.90;1.60;;;;;;;25.22;41.63;99004.05;219202;1277;23792;-72
2022/07/24 12:49:51;;;;;;;4.40;2.90;;;;;;;25.28;40.94;99005.19;219499;1277;22575;-75
2022/07/24 12:54:54;;;;;;;2.90;1.50;;;;;;;25.35;40.51;99005.17;218829;1278;646851;-72
2022/07/24 13:00:02;;;;;;;3.30;3.00;;;;;;;25.37;39.83;99003.31;219350;1278;22556;-72
2022/07/24 13:05:08;;;;;;;1.60;1.50;;;;;;;25.42;39.40;99002.32;219057;1277;22553;-75
2022/07/24 13:10:14;;;;;;;1.60;1.50;;;;;;;25.54;39.48;99001.92;219325;1277;22649;-74
2022/07/24 13:15:27;;;;;;;1.30;1.20;;;;;;;25.54;38.62;98994.48;219329;1278;24227;-72
2022/07/24 13:20:51;;;;;;;1.50;1.40;;;;;;;25.50;38.27;98993.43;219335;1276;24504;-72
2022/07/24 13:25:55;;;;;;;1.40;1.30;;;;;;;25.50;38.23;98992.48;219213;1278;22652;-72
2022/07/24 13:30:57;;;;;;;1.70;1.60;;;;;;;25.46;37.91;98990.98;219242;1277;26367;-70
2022/07/24 13:36:00;;;;;;;1.70;1.30;;;;;;;25.44;37.97;98990.42;219246;1277;22575;-71
2022/07/24 13:41:25;;;;;;;1.60;1.50;;;;;;;25.41;37.26;98989.00;219300;1278;25226;-71
2022/07/24 13:46:29;;;;;;;1.80;1.70;;;;;;;25.36;37.34;98992.18;219493;1278;25485;-73
2022/07/24 13:57:07;;;;;;;1.30;1.20;;;;;;;25.44;37.45;98981.65;219262;1278;25364;-73
2022/07/24 14:02:09;;;;;;;1.50;1.40;;;;;;;25.49;36.83;98991.87;219356;1278;25233;-71
2022/07/24 14:07:12;;;;;;;1.40;1.30;;;;;;;25.51;36.56;98984.50;219215;1278;26622;-72
2022/07/24 14:12:17;;;;;;;1.30;1.20;;;;;;;25.57;36.89;98976.62;219200;1277;25438;-71
2022/07/24 14:17:22;;;;;;;1.50;1.40;;;;;;;25.65;36.41;98974.23;219360;1278;25344;-72
2022/07/24 14:22:39;;;;;;;1.30;1.20;;;;;;;25.68;36.11;98977.30;219247;1278;22543;-72
2022/07/24 14:27:41;;;;;;;7.30;6.60;;;;;;;25.74;36.26;98971.52;219424;1277;25335;-71
2022/07/24 14:32:46;;;;;;;1.60;1.50;;;;;;;25.82;36.23;98965.83;219448;1278;23810;-72
2022/07/24 14:37:51;;;;;;;2.00;1.80;;;;;;;25.83;35.58;98960.66;219125;1277;23835;-73
2022/07/24 14:43:28;;;;;;;1.50;1.20;;;;;;;25.86;35.14;98960.13;219362;1278;24268;-71
2022/07/24 14:48:41;;;;;;;2.60;2.10;;;;;;;25.91;35.26;98948.38;219321;1278;22582;-72
2022/07/24 14:53:44;;;;;;;1.70;1.60;;;;;;;25.99;35.30;98951.02;219297;1277;22731;-71
2022/07/24 14:58:47;;;;;;;1.70;1.60;;;;;;;26.01;35.09;98941.34;219061;1278;25016;-73
2022/07/24 15:04:02;;;;;;;1.50;1.40;;;;;;;26.03;34.78;98933.29;219329;1276;25377;-71
2022/07/24 15:09:09;;;;;;;3.20;1.60;;;;;;;26.08;34.84;98932.21;219504;1277;22538;-72
2022/07/24 15:14:12;;;;;;;1.70;1.60;;;;;;;26.11;34.71;98932.45;219357;1278;22560;-71
2022/07/24 15:19:14;;;;;;;1.80;1.70;;;;;;;26.10;34.55;98928.30;219174;1277;24269;-71
2022/07/24 15:24:17;;;;;;;1.60;1.50;;;;;;;26.09;34.42;98927.98;219331;1278;24110;-71
2022/07/24 15:29:25;;;;;;;1.30;1.10;;;;;;;26.09;34.19;98922.50;219367;1278;25473;-70
2022/07/24 15:34:27;;;;;;;1.90;1.70;;;;;;;26.18;34.36;98918.27;219170;1278;23828;-71
2022/07/24 15:39:30;;;;;;;1.30;1.20;;;;;;;26.29;34.03;98916.64;219374;1277;23971;-72
2022/07/24 15:44:33;;;;;;;1.60;1.50;;;;;;;26.35;33.60;98911.39;219208;1277;22561;-70
2022/07/24 15:49:35;;;;;;;1.40;1.10;;;;;;;26.35;33.78;98911.70;219301;1276;25439;-72
2022/07/24 15:54:40;;;;;;;1.20;1.20;;;;;;;26.38;33.48;98910.29;219376;1276;25261;-71
2022/07/24 15:59:43;;;;;;;1.70;1.10;;;;;;;26.37;32.88;98912.10;219203;1276;25382;-71
2022/07/24 16:04:45;;;;;;;1.10;1.00;;;;;;;26.31;32.67;98909.73;219121;1276;25261;-69
2022/07/24 16:09:51;;;;;;;1.40;1.30;;;;;;;26.30;32.87;98910.29;219174;1276;22571;-72
2022/07/24 16:14:54;;;;;;;1.10;1.10;;;;;;;26.33;32.95;98906.29;219398;1277;24174;-71
2022/07/24 16:20:07;;;;;;;2.20;1.90;;;;;;;26.34;33.01;98902.91;219287;1277;22534;-70
2022/07/24 16:25:16;;;;;;;2.10;1.30;;;;;;;26.28;33.05;98897.34;219504;1277;24211;-71
2022/07/24 16:30:30;;;;;;;1.60;1.40;;;;;;;26.27;33.01;98898.52;219291;1276;22624;-72
2022/07/24 16:35:35;;;;;;;2.00;1.90;;;;;;;26.21;33.15;98894.59;219290;1276;22715;-70
2022/07/24 16:40:47;;;;;;;1.40;1.30;;;;;;;26.17;33.17;98892.31;219354;1277;24921;-71
2022/07/24 16:46:10;;;;;;;1.80;1.10;;;;;;;26.12;33.12;98893.55;219431;1277;22766;-71
2022/07/24 16:51:13;;;;;;;1.30;1.20;;;;;;;26.11;33.03;98889.95;219412;1278;24228;-70
2022/07/24 16:56:43;;;;;;;1.70;1.40;;;;;;;26.17;33.07;98892.47;219229;1277;22541;-71
2022/07/24 17:02:08;;;;;;;1.30;1.20;;;;;;;26.22;33.03;98891.52;219267;1277;24243;-71
2022/07/24 17:07:11;;;;;;;1.80;1.00;;;;;;;26.26;32.96;98890.52;219291;1277;22641;-74
2022/07/24 17:12:14;;;;;;;1.60;1.30;;;;;;;26.30;33.05;98887.45;219546;1278;22580;-71
2022/07/24 17:17:57;;;;;;;2.20;1.80;;;;;;;26.31;33.18;98889.34;219290;1276;24405;-71
2022/07/24 17:22:55;;;;;;;1.30;1.20;;;;;;;26.30;33.20;98887.45;219227;1277;22714;-72
2022/07/24 17:27:57;;;;;;;3.40;3.10;;;;;;;26.39;33.50;98883.07;219509;1276;22636;-73
2022/07/24 17:33:01;;;;;;;1.70;1.60;;;;;;;26.63;33.59;98881.71;219218;1276;22557;-71
2022/07/24 17:38:04;;;;;;;1.50;1.40;;;;;;;26.64;33.40;98881.40;218996;1276;22583;-71
2022/07/24 17:43:09;;;;;;;1.80;1.40;;;;;;;26.43;33.60;98886.98;219263;1277;25315;-71
2022/07/24 17:48:13;;;;;;;11.90;10.80;;;;;;;26.14;34.14;98885.95;219365;1276;24676;-70
2022/07/24 17:53:15;;;;;;;2.40;2.20;;;;;;;25.85;34.67;98884.95;219026;1276;24167;-70
2022/07/24 17:58:18;;;;;;;1.70;1.60;;;;;;;25.58;35.11;98888.08;219182;1276;22607;-69
2022/07/24 18:03:20;;;;;;;1.80;1.70;;;;;;;25.31;35.64;98886.85;219057;1276;25374;-72
2022/07/24 18:08:23;;;;;;;2.70;1.80;;;;;;;25.08;36.25;98886.42;219170;1276;25321;-70
2022/07/24 18:13:25;;;;;;;2.10;1.90;;;;;;;24.87;36.85;98888.09;219952;1276;22584;-71
2022/07/24 18:18:49;;;;;;;2.00;1.80;;;;;;;24.66;37.03;98892.42;219164;1276;25526;-70
2022/07/24 18:23:55;;;;;;;1.70;1.60;;;;;;;24.43;37.42;98881.27;219244;1276;24247;-70
2022/07/24 18:29:19;;;;;;;1.80;1.60;;;;;;;24.23;38.04;98885.17;219349;1276;25604;-71
2022/07/24 18:34:44;;;;;;;2.10;2.00;;;;;;;24.02;38.46;98888.65;219122;1276;22576;-71
2022/07/24 18:39:48;;;;;;;1.60;1.50;;;;;;;23.87;38.75;98890.67;219378;1276;24443;-69
2022/07/24 18:44:50;;;;;;;2.10;1.90;;;;;;;23.76;39.04;98893.98;219247;1276;25467;-72
2022/07/24 18:49:52;;;;;;;2.50;2.30;;;;;;;23.65;39.37;98895.89;219173;1276;22914;-72
2022/07/24 18:54:55;;;;;;;4.70;4.20;;;;;;;23.53;39.95;98898.02;219229;1276;25339;-70
2022/07/24 19:00:15;;;;;;;8.40;6.70;;;;;;;23.42;40.24;98902.18;219494;1277;22576;-71
2022/07/24 19:05:48;;;;;;;6.90;6.20;;;;;;;23.29;40.52;98907.95;219413;1276;22702;-71
2022/07/24 19:10:50;;;;;;;5.50;5.00;;;;;;;23.19;40.79;98921.00;219461;1276;25302;-70
2022/07/24 19:15:52;;;;;;;4.30;2.70;;;;;;;23.10;41.08;98922.52;219342;1276;25326;-72
2022/07/24 19:20:55;;;;;;;5.20;4.70;;;;;;;22.98;41.43;98930.20;219519;1276;22804;-70
2022/07/24 19:25:59;;;;;;;3.40;3.10;;;;;;;22.87;41.60;98926.08;219393;1276;24440;-70
2022/07/24 19:31:01;;;;;;;5.00;3.70;;;;;;;22.75;41.51;98925.57;219294;1276;25368;-70
2022/07/24 19:36:04;;;;;;;2.70;2.50;;;;;;;22.63;41.82;98930.00;219264;1277;24922;-71
2022/07/24 19:41:06;;;;;;;3.00;2.40;;;;;;;22.47;42.28;98928.86;219490;1276;22615;-70
2022/07/24 19:46:08;;;;;;;2.50;2.10;;;;;;;22.24;42.53;98932.73;219332;1277;25209;-72
2022/07/24 19:51:52;;;;;;;2.30;2.10;;;;;;;22.09;42.84;98932.70;219138;1276;25265;-70
2022/07/24 19:57:00;;;;;;;2.80;1.90;;;;;;;21.93;43.06;98928.89;219226;1276;23005;-71
2022/07/24 20:02:13;;;;;;;4.70;1.90;;;;;;;21.82;43.13;98934.38;219228;1276;24967;-73
2022/07/24 20:07:15;;;;;;;2.00;1.90;;;;;;;21.74;43.19;98939.13;219300;1276;22561;-71
2022/07/24 20:12:26;;;;;;;2.10;2.00;;;;;;;21.66;43.31;98941.08;219170;1276;25440;-71
2022/07/24 20:17:29;;;;;;;2.40;2.20;;;;;;;21.61;43.51;98939.27;219276;1276;22541;-70
2022/07/24 20:22:31;;;;;;;4.50;2.10;;;;;;;21.58;43.47;98939.42;219173;1276;22547;-70
2022/07/24 20:27:33;;;;;;;2.90;2.00;;;;;;;21.57;43.65;98936.77;219136;1276;24238;-73
2022/07/24 20:32:36;;;;;;;1.90;1.80;;;;;;;21.56;43.58;98934.64;219151;1276;25295;-70
2022/07/24 20:37:38;;;;;;;2.30;2.00;;;;;;;21.57;43.55;98932.78;219116;1276;25405;-72
2022/07/24 20:42:40;;;;;;;2.00;1.60;;;;;;;21.53;43.52;98935.66;219243;1276;22533;-72
2022/07/24 20:48:06;;;;;;;1.70;1.60;;;;;;;21.49;43.66;98937.19;219283;1276;22726;-71
2022/07/24 20:53:15;;;;;;;3.00;1.70;;;;;;;21.43;43.72;98938.92;219253;1276;24253;-72
2022/07/24 20:58:19;;;;;;;2.30;1.90;;;;;;;21.33;43.82;98934.14;219144;1276;25263;-71
2022/07/24 21:03:21;;;;;;;2.20;2.00;;;;;;;21.25;44.08;98939.55;219160;1276;22541;-72
2022/07/24 21:08:23;;;;;;;3.20;2.60;;;;;;;21.12;44.69;98943.71;219160;1276;24269;-70
2022/07/24 21:13:46;;;;;;;2.70;2.30;;;;;;;20.86;45.60;98947.48;219082;1276;25261;-71
2022/07/24 21:18:48;;;;;;;4.40;2.60;;;;;;;20.63;46.11;98948.63;219171;1276;24277;-69
2022/07/24 21:23:50;;;;;;;2.50;2.30;;;;;;;20.42;46.63;98950.27;219256;1276;22576;-70
2022/07/24 21:28:53;;;;;;;4.90;3.30;;;;;;;20.27;47.48;98954.77;219050;1276;22595;-71
2022/07/24 21:34:16;;;;;;;5.70;3.50;;;;;;;20.09;48.47;98960.44;219159;1276;24237;-71
2022/07/24 21:39:31;;;;;;;5.50;3.50;;;;;;;19.88;49.25;98959.86;219121;1276;24249;-70
2022/07/24 21:44:53;;;;;;;4.40;3.20;;;;;;;19.70;49.64;98960.98;219136;1276;24362;-72
2022/07/24 21:50:06;;;;;;;4.90;3.50;;;;;;;19.51;50.10;98963.23;219218;1276;22622;-72
2022/07/24 21:55:14;;;;;;;3.80;3.20;;;;;;;19.30;50.64;98961.06;219300;1276;22557;-70
2022/07/24 22:00:17;;;;;;;3.90;3.20;;;;;;;19.13;51.33;98960.48;219185;1276;22578;-69
2022/07/24 22:05:19;;;;;;;5.40;3.50;;;;;;;18.95;51.77;98958.83;219051;1276;25483;-70
2022/07/24 22:10:42;;;;;;;3.60;3.30;;;;;;;18.80;52.37;98958.17;218964;1276;22631;-70
2022/07/24 22:16:01;;;;;;;4.80;3.60;;;;;;;18.68;52.81;98956.38;219011;1276;22851;-70
2022/07/24 22:21:14;;;;;;;;;;;;;;;;;;;;;
2022/07/24 22:26:17;;;;;;;4.00;3.10;;;;;;;18.54;53.58;98960.50;219218;1276;22537;-71
2022/07/24 22:31:36;;;;;;;4.40;3.40;;;;;;;18.50;53.80;98954.79;219017;1276;23967;-69
2022/07/24 22:36:40;;;;;;;4.20;3.30;;;;;;;18.44;53.89;98953.90;219162;1276;22541;-71
2022/07/24 22:41:54;;;;;;;3.70;3.30;;;;;;;18.36;53.91;98952.23;219246;1276;22544;-69
2022/07/24 22:47:03;;;;;;;4.30;3.40;;;;;;;18.27;54.05;98951.94;219129;1276;25687;-71
2022/07/24 22:52:06;;;;;;;5.20;3.80;;;;;;;18.19;54.32;98952.36;218971;1276;24983;-72
2022/07/24 22:57:09;;;;;;;4.40;3.20;;;;;;;18.11;54.72;98954.02;219286;1276;22537;-71
2022/07/24 23:02:14;;;;;;;3.90;3.50;;;;;;;18.02;54.86;98952.09;219176;1276;24230;-70
2022/07/24 23:07:19;;;;;;;3.40;3.00;;;;;;;17.97;55.33;98952.81;219185;1276;26404;-72
2022/07/24 23:12:58;;;;;;;4.00;3.50;;;;;;;17.87;55.83;98948.73;219261;1276;22802;-70
2022/07/24 23:18:08;;;;;;;5.20;3.20;;;;;;;17.67;56.39;98949.95;219305;1276;25443;-71
2022/07/24 23:23:10;;;;;;;4.10;3.10;;;;;;;17.51;56.96;98945.19;219093;1276;22664;-72
2022/07/24 23:28:12;;;;;;;3.60;3.30;;;;;;;17.38;57.37;98939.92;219240;1276;22807;-71
2022/07/24 23:33:15;;;;;;;4.60;3.50;;;;;;;17.31;57.68;98934.40;219304;1276;25261;-71
2022/07/24 23:38:17;;;;;;;4.80;3.90;;;;;;;17.23;58.02;98932.23;219057;1276;22563;-70
2022/07/24 23:43:23;;;;;;;3.60;3.30;;;;;;;17.18;58.41;98937.33;219179;1276;24318;-72
2022/07/24 23:48:26;;;;;;;4.60;3.50;;;;;;;17.12;58.51;98932.45;219387;1276;22731;-71
2022/07/24 23:53:31;;;;;;;4.50;3.70;;;;;;;17.04;58.88;98928.27;219050;1276;23397;-70
2022/07/24 23:58:40;;;;;;;4.50;3.90;;;;;;;17.00;59.11;98927.34;219173;1276;22603;-72
